createdAt,value
2022-09-26T00:01:43.734Z,70.29
2022-09-26T00:04:21.031Z,70.17
2022-09-26T00:06:52.626Z,69.94
2022-09-26T00:09:21.873Z,70.11
2022-09-26T00:11:50.466Z,70.26
2022-09-26T00:14:22.013Z,70.76
2022-09-26T00:16:50.980Z,70.39
2022-09-26T00:19:20.102Z,70.21
2022-09-26T00:21:48.888Z,70.19
2022-09-26T00:24:17.954Z,69.86
2022-09-26T00:26:46.774Z,70.14
2022-09-26T00:29:15.797Z,70.33
2022-09-26T00:31:46.974Z,70.61
2022-09-26T00:34:17.682Z,70.55
2022-09-26T00:36:46.592Z,70.36
2022-09-26T00:39:17.008Z,70.38
2022-09-26T00:41:45.983Z,70.58
2022-09-26T00:44:45.400Z,71.06
2022-09-26T00:47:39.146Z,70.40
2022-09-26T00:50:15.682Z,70.41
2022-09-26T00:52:49.590Z,70.43
2022-09-26T00:55:21.515Z,70.60
2022-09-26T00:57:58.562Z,70.81
2022-09-26T01:00:27.159Z,70.25
2022-09-26T01:02:56.295Z,71.30
2022-09-26T01:05:25.817Z,70.97
2022-09-26T01:07:57.510Z,70.60
2022-09-26T01:10:29.162Z,70.58
2022-09-26T01:12:59.533Z,70.85
2022-09-26T01:15:29.616Z,71.08
2022-09-26T01:17:58.300Z,70.87
2022-09-26T01:20:33.479Z,71.03
2022-09-26T01:23:41.275Z,71.19
2022-09-26T01:26:34.549Z,71.32
2022-09-26T01:29:42.637Z,71.31
2022-09-26T01:32:40.901Z,71.17
2022-09-26T01:35:17.580Z,71.38
2022-09-26T01:37:58.912Z,71.22
2022-09-26T01:40:40.140Z,71.20
2022-09-26T01:43:19.554Z,71.12
2022-09-26T01:45:53.591Z,71.45
2022-09-26T01:48:29.482Z,71.24
2022-09-26T01:51:04.060Z,71.34
2022-09-26T01:53:39.985Z,71.24
2022-09-26T01:56:15.614Z,71.61
2022-09-26T01:58:50.994Z,71.58
2022-09-26T02:01:23.365Z,71.65
2022-09-26T02:03:56.199Z,71.32
2022-09-26T02:06:30.903Z,71.46
2022-09-26T02:09:06.749Z,71.43
2022-09-26T02:11:39.217Z,71.25
2022-09-26T02:14:15.139Z,71.54
2022-09-26T02:16:49.336Z,71.81
2022-09-26T02:19:23.505Z,71.53
2022-09-26T02:21:52.733Z,71.33
2022-09-26T02:24:22.118Z,71.58
2022-09-26T02:26:51.406Z,71.55
2022-09-26T02:29:21.480Z,71.24
2022-09-26T02:31:57.239Z,71.80
2022-09-26T02:34:26.683Z,72.00
2022-09-26T02:36:57.180Z,71.85
2022-09-26T02:39:27.697Z,71.87
2022-09-26T02:42:16.916Z,72.16
2022-09-26T02:45:00.753Z,71.33
2022-09-26T02:47:52.097Z,71.84
2022-09-26T02:50:47.768Z,71.70
2022-09-26T02:53:30.943Z,71.81
2022-09-26T02:56:10.949Z,72.24
2022-09-26T02:58:51.216Z,72.02
2022-09-26T03:01:27.624Z,72.30
2022-09-26T03:04:03.016Z,72.02
2022-09-26T03:06:36.551Z,72.34
2022-09-26T03:09:08.741Z,72.11
2022-09-26T03:11:39.504Z,72.03
2022-09-26T03:14:10.854Z,72.53
2022-09-26T03:16:44.122Z,72.16
2022-09-26T03:19:18.992Z,72.20
2022-09-26T03:21:47.962Z,72.65
2022-09-26T03:24:17.116Z,72.13
2022-09-26T03:26:47.482Z,72.33
2022-09-26T03:29:19.311Z,72.29
2022-09-26T03:31:49.753Z,72.38
2022-09-26T03:34:20.056Z,72.36
2022-09-26T03:36:49.395Z,72.33
2022-09-26T03:39:18.754Z,72.08
2022-09-26T03:41:52.248Z,72.71
2022-09-26T03:44:25.050Z,72.70
2022-09-26T03:47:09.614Z,72.66
2022-09-26T03:49:43.903Z,72.80
2022-09-26T03:52:15.560Z,72.12
2022-09-26T03:54:45.282Z,73.00
2022-09-26T03:57:15.326Z,72.85
2022-09-26T03:59:49.329Z,72.77
2022-09-26T04:02:19.321Z,72.64
2022-09-26T04:04:48.838Z,72.76
2022-09-26T04:07:17.411Z,72.67
2022-09-26T04:09:45.894Z,72.75
2022-09-26T04:12:15.343Z,72.73
2022-09-26T04:14:46.244Z,73.01
2022-09-26T04:17:16.611Z,72.28
2022-09-26T04:19:49.167Z,72.71
2022-09-26T04:22:18.432Z,73.36
2022-09-26T04:24:51.313Z,72.86
2022-09-26T04:27:19.915Z,73.46
2022-09-26T04:29:48.703Z,72.70
2022-09-26T04:32:28.912Z,73.11
2022-09-26T04:35:17.668Z,73.24
2022-09-26T04:37:47.090Z,72.63
2022-09-26T04:40:18.300Z,72.64
2022-09-26T04:43:08.703Z,73.00
2022-09-26T04:45:39.897Z,73.36
2022-09-26T04:48:10.944Z,73.38
2022-09-26T04:50:56.479Z,73.31
2022-09-26T04:53:25.540Z,73.15
2022-09-26T04:56:05.202Z,73.22
2022-09-26T04:58:34.297Z,73.32
2022-09-26T05:01:05.160Z,73.05
2022-09-26T05:03:45.114Z,73.14
2022-09-26T05:06:15.505Z,73.39
2022-09-26T05:08:46.501Z,73.34
2022-09-26T05:11:17.874Z,73.62
2022-09-26T05:13:50.085Z,73.49
2022-09-26T05:16:22.101Z,73.11
2022-09-26T05:18:55.451Z,73.33
2022-09-26T05:21:26.154Z,73.92
2022-09-26T05:24:13.449Z,73.79
2022-09-26T05:26:46.467Z,73.88
2022-09-26T05:29:19.012Z,73.58
2022-09-26T05:31:58.455Z,73.45
2022-09-26T05:34:29.294Z,73.71
2022-09-26T05:36:59.655Z,73.57
2022-09-26T05:39:46.895Z,73.81
2022-09-26T05:42:16.813Z,73.49
2022-09-26T05:44:45.366Z,73.61
2022-09-26T05:47:14.292Z,73.94
2022-09-26T05:49:43.360Z,73.55
2022-09-26T05:52:17.168Z,73.67
2022-09-26T05:54:45.708Z,73.69
2022-09-26T05:57:34.944Z,73.78
2022-09-26T06:00:04.051Z,73.99
2022-09-26T06:02:55.784Z,73.84
2022-09-26T06:05:33.070Z,74.08
2022-09-26T06:08:19.012Z,73.88
2022-09-26T06:11:04.465Z,74.28
2022-09-26T06:13:34.229Z,74.00
2022-09-26T06:16:05.679Z,74.04
2022-09-26T06:18:35.004Z,73.33
2022-09-26T06:21:04.023Z,73.96
2022-09-26T06:23:33.781Z,74.08
2022-09-26T06:26:05.032Z,74.11
2022-09-26T06:28:34.701Z,74.04
2022-09-26T06:31:11.499Z,74.00
2022-09-26T06:34:11.589Z,74.11
2022-09-26T06:36:49.475Z,74.20
2022-09-26T06:39:18.286Z,74.06
2022-09-26T06:41:48.674Z,74.11
2022-09-26T06:44:44.653Z,73.80
2022-09-26T06:47:43.158Z,74.12
2022-09-26T06:50:51.955Z,74.39
2022-09-26T06:53:20.671Z,74.63
2022-09-26T06:55:49.645Z,74.15
2022-09-26T06:58:18.848Z,74.17
2022-09-26T07:00:58.609Z,74.17
2022-09-26T07:04:00.846Z,74.66
2022-09-26T07:06:37.843Z,74.50
2022-09-26T07:09:12.262Z,74.47
2022-09-26T07:12:15.919Z,74.34
2022-09-26T07:14:45.771Z,74.53
2022-09-26T07:17:32.032Z,74.29
2022-09-26T07:20:36.614Z,74.57
2022-09-26T07:23:18.272Z,74.35
2022-09-26T07:25:47.770Z,74.62
2022-09-26T07:28:17.540Z,74.04
2022-09-26T07:30:49.420Z,74.34
2022-09-26T07:33:43.193Z,74.43
2022-09-26T07:36:13.154Z,73.59
2022-09-26T07:38:48.814Z,73.53
2022-09-26T07:41:18.916Z,73.93
2022-09-26T07:46:55.054Z,73.97
2022-09-26T07:49:42.385Z,74.80
2022-09-26T07:52:17.978Z,74.46
2022-09-26T07:54:59.478Z,74.30
2022-09-26T07:57:52.372Z,74.09
2022-09-26T08:00:31.078Z,73.15
2022-09-26T08:03:20.412Z,72.97
2022-09-26T08:05:49.775Z,71.86
2022-09-26T08:08:21.215Z,70.73
2022-09-26T08:11:04.256Z,67.66
2022-09-26T08:13:52.212Z,64.76
2022-09-26T08:16:43.680Z,63.15
2022-09-26T08:19:16.879Z,60.66
2022-09-26T08:21:46.558Z,62.45
2022-09-26T08:24:15.835Z,64.62
2022-09-26T08:26:44.986Z,64.88
2022-09-26T08:29:19.680Z,65.44
2022-09-26T08:31:51.376Z,65.23
2022-09-26T08:34:25.411Z,65.20
2022-09-26T08:37:13.553Z,66.11
2022-09-26T08:40:02.670Z,65.94
2022-09-26T08:42:59.315Z,66.04
2022-09-26T08:46:13.038Z,66.26
2022-09-26T08:49:14.116Z,66.36
2022-09-26T08:51:48.142Z,66.12
2022-09-26T08:54:19.548Z,66.14
2022-09-26T08:56:54.202Z,64.93
2022-09-26T08:59:29.047Z,61.98
2022-09-26T09:02:04.445Z,60.07
2022-09-26T09:04:53.650Z,59.14
2022-09-26T09:07:25.787Z,59.69
2022-09-26T09:10:00.939Z,58.42
2022-09-26T09:13:02.041Z,59.35
2022-09-26T09:15:57.194Z,60.36
2022-09-26T09:19:06.630Z,60.14
2022-09-26T09:22:07.717Z,61.30
2022-09-26T09:25:00.456Z,61.10
2022-09-26T09:27:52.771Z,61.05
2022-09-26T09:30:26.484Z,61.82
2022-09-26T09:33:03.818Z,61.52
2022-09-26T09:35:43.441Z,61.30
2022-09-26T09:38:30.406Z,61.72
2022-09-26T09:41:26.160Z,61.39
2022-09-26T09:43:58.068Z,61.44
2022-09-26T09:46:34.447Z,61.27
2022-09-26T09:49:22.574Z,62.00
2022-09-26T09:52:04.612Z,61.99
2022-09-26T09:54:50.337Z,61.67
2022-09-26T09:57:48.566Z,61.25
2022-09-26T10:00:22.352Z,61.25
2022-09-26T10:03:01.793Z,60.84
2022-09-26T10:05:42.645Z,60.36
2022-09-26T10:08:16.396Z,59.97
2022-09-26T10:11:14.776Z,60.14
2022-09-26T10:14:02.838Z,59.28
2022-09-26T10:17:19.750Z,59.57
2022-09-26T10:20:34.653Z,58.91
2022-09-26T10:23:19.729Z,58.91
2022-09-26T10:25:50.810Z,58.86
2022-09-26T10:28:30.248Z,58.54
2022-09-26T10:31:09.962Z,58.82
2022-09-26T10:34:02.455Z,58.42
2022-09-26T10:36:34.024Z,58.47
2022-09-26T10:39:35.710Z,57.97
2022-09-26T10:42:13.898Z,57.73
2022-09-26T10:44:42.934Z,56.67
2022-09-26T10:47:26.542Z,56.85
2022-09-26T10:50:18.996Z,57.02
2022-09-26T10:53:09.844Z,56.99
2022-09-26T10:55:43.718Z,56.99
2022-09-26T10:58:22.215Z,57.04
2022-09-26T11:00:53.877Z,55.91
2022-09-26T11:03:32.966Z,55.99
2022-09-26T11:06:32.422Z,55.58
2022-09-26T11:09:06.804Z,56.24
2022-09-26T11:11:55.510Z,55.85
2022-09-26T11:14:28.902Z,55.05
2022-09-26T11:17:07.353Z,55.33
2022-09-26T11:19:44.491Z,55.74
2022-09-26T11:22:25.312Z,55.11
2022-09-26T11:25:04.235Z,55.14
2022-09-26T11:27:43.004Z,54.70
2022-09-26T11:30:21.691Z,54.98
2022-09-26T11:33:00.477Z,54.88
2022-09-26T11:36:25.513Z,54.75
2022-09-26T11:38:57.074Z,54.38
2022-09-26T11:41:45.433Z,53.73
2022-09-26T11:44:29.255Z,54.21
2022-09-26T11:47:51.213Z,53.52
2022-09-26T11:50:48.175Z,52.84
2022-09-26T11:53:49.436Z,52.61
2022-09-26T11:56:33.563Z,53.12
2022-09-26T11:59:06.028Z,53.07
2022-09-26T12:01:46.785Z,53.01
2022-09-26T12:04:42.304Z,52.97
2022-09-26T12:07:21.263Z,52.43
2022-09-26T12:10:17.746Z,52.44
2022-09-26T12:13:00.795Z,52.95
2022-09-26T12:15:37.440Z,52.75
2022-09-26T12:18:15.665Z,52.67
2022-09-26T12:20:57.880Z,52.57
2022-09-26T12:23:33.358Z,53.05
2022-09-26T12:26:13.753Z,52.48
2022-09-26T12:28:57.728Z,52.44
2022-09-26T12:31:52.365Z,52.65
2022-09-26T12:34:44.536Z,52.42
2022-09-26T12:37:33.662Z,52.81
2022-09-26T12:40:17.284Z,52.70
2022-09-26T12:43:13.815Z,52.81
2022-09-26T12:46:00.143Z,53.38
2022-09-26T12:48:46.635Z,53.51
2022-09-26T12:51:28.966Z,52.76
2022-09-26T12:54:17.371Z,53.13
2022-09-26T12:56:53.128Z,53.38
2022-09-26T12:59:39.329Z,52.94
2022-09-26T13:02:36.179Z,53.52
2022-09-26T13:05:30.547Z,53.16
2022-09-26T13:08:05.174Z,53.28
2022-09-26T13:10:44.830Z,53.08
2022-09-26T13:13:45.521Z,53.05
2022-09-26T13:16:33.739Z,53.18
2022-09-26T13:19:11.297Z,53.42
2022-09-26T13:21:44.998Z,53.11
2022-09-26T13:24:18.120Z,53.16
2022-09-26T13:26:53.632Z,52.90
2022-09-26T13:29:28.823Z,52.69
2022-09-26T13:32:17.118Z,53.19
2022-09-26T13:34:53.332Z,52.58
2022-09-26T13:37:38.560Z,53.13
2022-09-26T13:40:21.482Z,52.90
2022-09-26T13:43:03.501Z,52.78
2022-09-26T13:45:50.322Z,52.79
2022-09-26T13:48:29.085Z,53.07
2022-09-26T13:51:09.026Z,52.89
2022-09-26T13:53:46.037Z,52.72
2022-09-26T13:56:48.840Z,52.62
2022-09-26T13:59:51.054Z,52.79
2022-09-26T14:02:28.797Z,53.07
2022-09-26T14:05:46.036Z,52.93
2022-09-26T14:08:51.090Z,53.35
2022-09-26T14:11:43.438Z,53.15
2022-09-26T14:14:38.147Z,53.32
2022-09-26T14:18:01.332Z,53.69
2022-09-26T14:20:37.764Z,53.48
2022-09-26T14:23:37.429Z,53.44
2022-09-26T14:26:10.035Z,53.70
2022-09-26T14:28:40.670Z,53.85
2022-09-26T14:31:42.733Z,54.01
2022-09-26T14:34:26.423Z,54.35
2022-09-26T14:37:04.953Z,54.40
2022-09-26T14:39:40.384Z,54.83
2022-09-26T14:42:28.193Z,54.82
2022-09-26T14:45:01.306Z,54.92
2022-09-26T14:47:38.167Z,55.31
2022-09-26T14:50:14.566Z,55.49
2022-09-26T14:52:53.668Z,55.80
2022-09-26T14:55:23.419Z,55.81
2022-09-26T14:57:52.341Z,56.00
2022-09-26T15:00:39.872Z,55.78
2022-09-26T15:03:16.399Z,55.88
2022-09-26T15:05:46.720Z,56.45
2022-09-26T15:08:26.935Z,56.46
2022-09-26T15:10:57.972Z,56.24
2022-09-26T15:13:38.939Z,56.25
2022-09-26T15:16:32.125Z,56.88
2022-09-26T15:19:09.788Z,57.41
2022-09-26T15:21:42.686Z,57.27
2022-09-26T15:24:30.567Z,57.39
2022-09-26T15:27:03.199Z,57.65
2022-09-26T15:29:34.447Z,57.54
2022-09-26T15:32:03.983Z,57.77
2022-09-26T15:34:35.683Z,58.11
2022-09-26T15:37:15.995Z,58.64
2022-09-26T15:39:44.868Z,58.74
2022-09-26T15:42:46.355Z,58.73
2022-09-26T15:45:49.995Z,59.02
2022-09-26T15:48:28.529Z,59.22
2022-09-26T15:51:05.203Z,59.39
2022-09-26T15:53:39.331Z,59.76
2022-09-26T15:56:11.906Z,59.98
2022-09-26T15:58:46.606Z,59.40
2022-09-26T16:01:18.150Z,60.80
2022-09-26T16:03:55.381Z,60.41
2022-09-26T16:06:30.012Z,60.74
2022-09-26T16:09:06.844Z,60.98
2022-09-26T16:11:47.061Z,60.30
2022-09-26T16:14:29.722Z,60.97
2022-09-26T16:17:09.656Z,61.09
2022-09-26T16:19:45.369Z,61.30
2022-09-26T16:22:45.025Z,61.32
2022-09-26T16:25:52.928Z,62.15
2022-09-26T16:28:44.506Z,61.52
2022-09-26T16:31:36.230Z,62.20
2022-09-26T16:34:24.716Z,62.03
2022-09-26T16:36:55.873Z,61.86
2022-09-26T16:39:26.683Z,62.83
2022-09-26T16:42:02.410Z,62.22
2022-09-26T16:44:45.494Z,62.73
2022-09-26T16:47:34.701Z,62.44
2022-09-26T16:50:20.862Z,62.43
2022-09-26T16:52:49.463Z,62.94
2022-09-26T16:55:21.303Z,63.27
2022-09-26T16:57:54.753Z,62.94
2022-09-26T17:00:43.794Z,62.94
2022-09-26T17:03:24.541Z,62.57
2022-09-26T17:05:55.058Z,62.52
2022-09-26T17:08:24.805Z,62.37
2022-09-26T17:10:55.862Z,63.52
2022-09-26T17:13:27.559Z,63.41
2022-09-26T17:16:03.113Z,62.57
2022-09-26T17:18:34.541Z,62.53
2022-09-26T17:21:04.820Z,62.66
2022-09-26T17:23:41.874Z,62.96
2022-09-26T17:26:23.843Z,63.37
2022-09-26T17:28:54.026Z,63.28
2022-09-26T17:31:24.042Z,64.17
2022-09-26T17:33:54.209Z,63.90
2022-09-26T17:36:26.671Z,64.07
2022-09-26T17:38:58.736Z,64.12
2022-09-26T17:41:29.301Z,64.45
2022-09-26T17:43:59.654Z,63.59
2022-09-26T17:46:31.195Z,63.70
2022-09-26T17:49:04.730Z,64.32
2022-09-26T17:51:36.586Z,64.68
2022-09-26T17:54:07.222Z,64.76
2022-09-26T17:56:36.173Z,64.65
2022-09-26T17:59:11.776Z,63.91
2022-09-26T18:01:48.252Z,64.28
2022-09-26T18:04:18.143Z,64.43
2022-09-26T18:06:48.047Z,64.71
2022-09-26T18:09:20.125Z,65.28
2022-09-26T18:11:55.298Z,65.21
2022-09-26T18:14:24.137Z,64.62
2022-09-26T18:16:52.704Z,64.68
2022-09-26T18:19:23.317Z,65.42
2022-09-26T18:21:54.742Z,65.26
2022-09-26T18:24:27.316Z,65.32
2022-09-26T18:27:03.389Z,65.45
2022-09-26T18:29:36.039Z,65.34
2022-09-26T18:32:14.582Z,65.13
2022-09-26T18:34:43.748Z,65.62
2022-09-26T18:37:13.149Z,65.70
2022-09-26T18:39:41.960Z,65.87
2022-09-26T18:42:17.615Z,65.35
2022-09-26T18:44:46.729Z,65.72
2022-09-26T18:47:17.324Z,65.48
2022-09-26T18:49:46.906Z,65.79
2022-09-26T18:52:18.493Z,66.02
2022-09-26T18:55:08.261Z,65.75
2022-09-26T18:57:56.429Z,66.48
2022-09-26T19:00:26.208Z,66.89
2022-09-26T19:02:56.598Z,66.57
2022-09-26T19:05:31.113Z,67.17
2022-09-26T19:08:02.323Z,67.41
2022-09-26T19:10:32.434Z,67.37
2022-09-26T19:13:02.961Z,67.69
2022-09-26T19:15:34.762Z,67.20
2022-09-26T19:18:03.790Z,66.90
2022-09-26T19:20:32.959Z,67.26
2022-09-26T19:23:01.620Z,67.23
2022-09-26T19:25:30.706Z,67.80
2022-09-26T19:28:00.305Z,68.26
2022-09-26T19:30:30.568Z,67.55
2022-09-26T19:32:59.212Z,67.69
2022-09-26T19:35:30.125Z,67.74
2022-09-26T19:38:00.130Z,67.75
2022-09-26T19:40:29.353Z,68.17
2022-09-26T19:42:58.264Z,67.96
2022-09-26T19:45:32.252Z,68.07
2022-09-26T19:48:04.409Z,68.51
2022-09-26T19:50:35.664Z,68.75
2022-09-26T19:53:14.304Z,68.05
2022-09-26T19:55:43.407Z,68.58
2022-09-26T19:58:16.806Z,68.50
2022-09-26T20:00:50.123Z,68.78
2022-09-26T20:03:20.998Z,69.26
2022-09-26T20:05:50.399Z,68.60
2022-09-26T20:08:21.609Z,68.34
2022-09-26T20:10:51.023Z,68.61
2022-09-26T20:13:20.495Z,69.58
2022-09-26T20:15:50.119Z,69.18
2022-09-26T20:18:22.058Z,69.32
2022-09-26T20:20:53.888Z,69.73
2022-09-26T20:23:25.946Z,69.62
2022-09-26T20:25:56.165Z,69.36
2022-09-26T20:28:24.844Z,69.54
2022-09-26T20:30:56.098Z,69.76
2022-09-26T20:33:26.302Z,69.47
2022-09-26T20:36:02.574Z,69.52
2022-09-26T20:38:39.362Z,69.87
2022-09-26T20:41:13.779Z,69.74
2022-09-26T20:43:47.853Z,69.58
2022-09-26T20:46:21.021Z,69.62
2022-09-26T20:48:50.351Z,69.96
2022-09-26T20:51:24.233Z,69.72
2022-09-26T20:53:53.029Z,69.82
2022-09-26T20:56:23.424Z,70.03
2022-09-26T20:58:52.136Z,70.37
2022-09-26T21:01:22.974Z,69.50
2022-09-26T21:03:54.643Z,69.89
2022-09-26T21:06:28.277Z,69.67
2022-09-26T21:08:57.023Z,70.09
2022-09-26T21:11:26.499Z,69.94
2022-09-26T21:13:56.781Z,70.58
2022-09-26T21:16:41.774Z,70.25
2022-09-26T21:19:22.811Z,70.51
2022-09-26T21:21:54.037Z,70.15
2022-09-26T21:24:37.669Z,70.86
2022-09-26T21:27:11.099Z,71.13
2022-09-26T21:29:39.921Z,71.12
2022-09-26T21:32:14.104Z,70.96
2022-09-26T21:34:43.721Z,70.84
2022-09-26T21:37:12.295Z,70.42
2022-09-26T21:39:40.794Z,70.68
2022-09-26T21:42:09.777Z,71.06
2022-09-26T21:44:42.743Z,70.59
2022-09-26T21:47:11.938Z,70.80
2022-09-26T21:49:40.429Z,71.43
2022-09-26T21:52:14.807Z,71.61
2022-09-26T21:54:45.361Z,70.83
2022-09-26T21:57:18.413Z,70.99
2022-09-26T21:59:51.466Z,71.84
2022-09-26T22:02:21.264Z,71.89
2022-09-26T22:04:52.431Z,71.19
2022-09-26T22:07:21.462Z,71.53
2022-09-26T22:09:49.980Z,71.46
2022-09-26T22:12:19.925Z,71.11
2022-09-26T22:14:48.571Z,72.11
2022-09-26T22:17:21.929Z,72.16
2022-09-26T22:19:52.610Z,71.60
2022-09-26T22:22:24.093Z,71.57
2022-09-26T22:24:53.472Z,72.00
2022-09-26T22:27:22.472Z,71.82
2022-09-26T22:29:51.194Z,72.01
2022-09-26T22:32:20.791Z,72.08
2022-09-26T22:34:49.311Z,71.64
2022-09-26T22:37:18.170Z,72.14
2022-09-26T22:39:47.717Z,72.83
2022-09-26T22:42:16.359Z,72.33
2022-09-26T22:44:45.267Z,72.13
2022-09-26T22:47:19.737Z,72.46
2022-09-26T22:49:49.349Z,72.32
2022-09-26T22:52:18.068Z,72.87
2022-09-26T22:54:47.881Z,72.89
2022-09-26T22:57:17.197Z,72.41
2022-09-26T22:59:45.629Z,72.36
2022-09-26T23:02:15.975Z,72.71
2022-09-26T23:04:47.611Z,73.16
2022-09-26T23:07:17.736Z,72.64
2022-09-26T23:09:46.205Z,72.81
2022-09-26T23:12:14.908Z,72.48
2022-09-26T23:14:43.389Z,72.85
2022-09-26T23:17:16.253Z,73.25
2022-09-26T23:19:45.199Z,73.46
2022-09-26T23:22:14.769Z,73.22
2022-09-26T23:24:43.501Z,73.79
2022-09-26T23:27:13.113Z,72.82
2022-09-26T23:29:41.780Z,73.01
2022-09-26T23:32:13.920Z,73.06
2022-09-26T23:34:42.695Z,73.28
2022-09-26T23:37:13.396Z,73.89
2022-09-26T23:39:42.064Z,73.56
2022-09-26T23:42:13.922Z,73.58
2022-09-26T23:44:42.495Z,73.25
2022-09-26T23:47:15.047Z,73.52
2022-09-26T23:49:43.629Z,74.14
2022-09-26T23:52:14.262Z,74.07
2022-09-26T23:54:42.766Z,74.16
2022-09-26T23:57:13.481Z,74.35
2022-09-26T23:59:41.901Z,73.82
